Time;durP1;ratioP1;P1;durP2;ratioP2;P2;SDS_P1;SDS_P2;PMS_P1;PMS_P2;Temp;Humidity;BMP_temperature;BMP_pressure;BME280_temperature;BME280_humidity;BME280_pressure;Samples;Min_cycle;Max_cycle;Signal;HPM_P1;HPM_P2
2022/05/30 00:00:39;;;;;;;2.63;1.13;;;17.10;99.90;;;;;;5070952;28;20202;-71
2022/05/30 00:03:06;;;;;;;3.40;1.40;;;16.90;99.90;;;;;;5071634;28;20317;-71
2022/05/30 00:05:34;;;;;;;2.80;1.20;;;16.80;99.90;;;;;;5062869;28;20206;-71
2022/05/30 00:08:01;;;;;;;1.70;1.10;;;16.70;99.90;;;;;;5071333;28;20206;-70
2022/05/30 00:10:29;;;;;;;2.17;1.30;;;16.70;99.90;;;;;;5071478;28;20264;-70
2022/05/30 00:12:56;;;;;;;1.40;1.30;;;16.60;99.90;;;;;;5071495;28;20206;-70
2022/05/30 00:15:23;;;;;;;3.72;1.10;;;16.50;99.90;;;;;;5071590;28;20212;-70
2022/05/30 00:17:56;;;;;;;1.58;1.20;;;16.40;99.90;;;;;;5070827;28;20810;-71
2022/05/30 00:20:24;;;;;;;2.08;1.00;;;16.40;99.90;;;;;;5071288;28;20221;-70
2022/05/30 00:22:51;;;;;;;4.97;1.50;;;16.30;99.90;;;;;;5070846;28;20256;-70
2022/05/30 00:25:19;;;;;;;2.50;1.20;;;16.20;99.90;;;;;;5070946;28;20259;-69
2022/05/30 00:27:46;;;;;;;5.53;1.55;;;16.30;99.90;;;;;;5070630;28;20255;-73
2022/05/30 00:30:15;;;;;;;1.73;1.20;;;16.40;99.90;;;;;;5071182;28;20210;-70
2022/05/30 00:32:42;;;;;;;1.02;1.02;;;16.50;99.90;;;;;;5070683;28;20206;-70
2022/05/30 00:35:12;;;;;;;2.72;1.17;;;16.40;99.90;;;;;;5070901;28;20673;-69
2022/05/30 00:37:39;;;;;;;2.42;1.30;;;16.40;99.90;;;;;;5070382;28;20198;-71
2022/05/30 00:40:07;;;;;;;2.33;1.25;;;16.40;99.90;;;;;;5071024;28;20627;-70
2022/05/30 00:42:35;;;;;;;1.15;1.00;;;16.40;99.90;;;;;;5070030;28;20613;-69
2022/05/30 00:45:02;;;;;;;3.28;1.30;;;16.40;99.90;;;;;;5070860;28;20240;-69
2022/05/30 00:47:29;;;;;;;2.17;0.98;;;16.30;99.90;;;;;;5070437;28;20221;-70
2022/05/30 00:49:56;;;;;;;1.40;1.30;;;16.20;99.90;;;;;;5071081;28;20203;-70
2022/05/30 00:52:29;;;;;;;2.35;1.02;;;16.20;99.90;;;;;;5071069;28;20202;-70
2022/05/30 00:55:06;;;;;;;3.22;1.58;;;16.20;99.90;;;;;;5071026;28;20211;-71
2022/05/30 00:57:34;;;;;;;2.13;1.70;;;16.20;99.90;;;;;;5069875;28;20267;-72
2022/05/30 01:00:08;;;;;;;1.55;1.35;;;16.20;99.90;;;;;;5070782;28;20260;-71
2022/05/30 01:02:37;;;;;;;4.18;1.65;;;16.40;99.90;;;;;;5070100;28;20576;-72
2022/05/30 01:07:53;;;;;;;4.40;1.52;;;16.20;99.90;;;;;;5070180;28;20693;-70
2022/05/30 01:10:22;;;;;;;2.58;1.70;;;16.10;99.90;;;;;;5070553;28;20267;-70
2022/05/30 01:12:52;;;;;;;2.63;1.63;;;16.00;99.90;;;;;;5069830;28;20260;-70
2022/05/30 01:15:23;;;;;;;1.77;1.33;;;15.90;99.90;;;;;;5070365;28;20206;-70
2022/05/30 01:17:59;;;;;;;3.42;1.30;;;15.80;99.90;;;;;;5070276;28;20214;-69
2022/05/30 01:20:41;;;;;;;2.95;1.08;;;15.70;99.90;;;;;;5070442;28;20206;-69
2022/05/30 01:23:36;;;;;;;1.38;1.27;;;15.70;99.90;;;;;;5070293;28;20210;-69
2022/05/30 01:26:42;;;;;;;1.83;1.58;;;15.80;99.90;;;;;;5070385;28;20210;-69
2022/05/30 01:29:17;;;;;;;1.92;1.08;;;15.90;99.90;;;;;;5048190;28;20259;-68
2022/05/30 01:31:44;;;;;;;2.53;1.25;;;16.00;99.90;;;;;;5065694;28;20282;-68
2022/05/30 01:34:12;;;;;;;3.15;1.42;;;16.00;99.90;;;;;;5070619;28;20206;-69
2022/05/30 01:36:39;;;;;;;2.50;1.08;;;16.00;99.90;;;;;;5070094;28;20205;-69
2022/05/30 01:39:06;;;;;;;2.45;1.30;;;15.90;99.90;;;;;;5070094;28;20199;-69
2022/05/30 01:41:33;;;;;;;1.30;1.15;;;15.80;99.90;;;;;;5069616;28;20263;-69
2022/05/30 01:44:00;;;;;;;2.25;1.10;;;15.80;99.90;;;;;;5069958;28;20234;-70
2022/05/30 01:46:29;;;;;;;2.13;1.38;;;15.60;99.90;;;;;;5070529;28;20206;-70
2022/05/30 01:48:56;;;;;;;2.40;2.20;;;15.60;99.90;;;;;;5070470;28;20217;-70
2022/05/30 01:51:23;;;;;;;2.15;1.15;;;15.60;99.90;;;;;;5070238;28;20202;-70
2022/05/30 01:53:51;;;;;;;3.10;1.75;;;15.70;99.90;;;;;;5069466;28;20636;-70
2022/05/30 01:56:18;;;;;;;2.63;1.35;;;15.70;99.90;;;;;;5069926;28;20303;-70
2022/05/30 01:58:45;;;;;;;2.25;2.00;;;15.60;99.90;;;;;;5069834;28;20210;-69
2022/05/30 02:01:18;;;;;;;5.47;3.47;;;15.50;99.90;;;;;;5069920;28;20259;-69
2022/05/30 02:03:48;;;;;;;6.60;3.00;;;15.50;99.90;;;;;;5069818;28;20248;-69
2022/05/30 02:06:16;;;;;;;4.00;3.17;;;15.40;99.90;;;;;;5069995;28;20275;-68
2022/05/30 02:08:43;;;;;;;7.57;4.00;;;15.40;99.90;;;;;;5069569;28;20210;-69
2022/05/30 02:11:10;;;;;;;5.90;3.17;;;15.30;99.90;;;;;;5069557;28;20260;-69
2022/05/30 02:13:38;;;;;;;4.00;3.17;;;15.20;99.90;;;;;;5069616;28;20206;-69
2022/05/30 02:18:53;;;;;;;3.45;2.92;;;14.90;99.90;;;;;;5069587;28;20229;-69
2022/05/30 02:21:20;;;;;;;3.95;2.67;;;14.90;99.90;;;;;;5069616;28;20584;-69
2022/05/30 02:23:47;;;;;;;5.65;2.95;;;15.00;99.90;;;;;;5069179;28;20292;-69
2022/05/30 02:26:14;;;;;;;5.40;2.92;;;15.00;99.90;;;;;;5070088;28;20210;-69
2022/05/30 02:28:41;;;;;;;4.13;2.92;;;14.90;99.90;;;;;;5071249;28;20666;-69
2022/05/30 02:31:08;;;;;;;4.50;2.85;;;14.80;99.90;;;;;;5073683;28;20425;-70
2022/05/30 02:39:05;;;;;;;1.83;1.30;;;14.90;99.90;;;;;;5072954;28;20213;-71
2022/05/30 02:41:32;;;;;;;3.17;1.67;;;14.90;99.90;;;;;;5072937;28;20210;-71
2022/05/30 02:43:59;;;;;;;3.70;1.58;;;14.80;99.90;;;;;;5072977;28;20775;-71
2022/05/30 02:46:26;;;;;;;2.30;1.63;;;14.80;99.90;;;;;;5073380;28;20611;-70
2022/05/30 02:48:53;;;;;;;3.25;0.90;;;14.80;99.90;;;;;;5072851;28;20673;-70
2022/05/30 02:51:21;;;;;;;2.75;0.70;;;14.60;99.90;;;;;;5073177;28;20202;-70
2022/05/30 02:53:49;;;;;;;1.13;1.00;;;14.50;99.90;;;;;;5072491;28;20210;-71
2022/05/30 02:56:16;;;;;;;2.45;1.10;;;14.30;99.90;;;;;;5073085;28;20255;-69
2022/05/30 02:58:44;;;;;;;3.13;1.08;;;14.30;99.90;;;;;;5072437;28;20714;-70
2022/05/30 03:01:12;;;;;;;1.67;1.40;;;14.20;99.90;;;;;;5072603;28;20206;-70
2022/05/30 03:03:39;;;;;;;1.25;1.08;;;14.40;99.90;;;;;;5072279;28;20670;-70
2022/05/30 03:06:06;;;;;;;3.03;1.20;;;14.50;99.90;;;;;;5072791;28;20202;-70
2022/05/30 03:08:34;;;;;;;2.67;2.47;;;14.60;99.90;;;;;;5072059;28;20256;-70
2022/05/30 03:11:02;;;;;;;2.35;1.60;;;14.60;99.90;;;;;;5072730;28;20206;-69
2022/05/30 03:13:29;;;;;;;2.10;1.17;;;14.40;99.90;;;;;;5072371;28;20582;-69
2022/05/30 03:15:58;;;;;;;2.05;1.13;;;14.30;99.90;;;;;;5072803;28;20214;-68
2022/05/30 03:18:25;;;;;;;2.78;1.13;;;14.40;99.90;;;;;;5072646;28;20737;-69
2022/05/30 03:20:52;;;;;;;2.35;2.15;;;14.40;99.90;;;;;;5071982;28;20214;-71
2022/05/30 03:23:19;;;;;;;1.83;1.00;;;14.50;99.90;;;;;;5072273;28;20283;-72
2022/05/30 03:25:47;;;;;;;2.45;1.10;;;14.50;99.90;;;;;;5071903;28;20260;-71
2022/05/30 03:28:15;;;;;;;1.15;0.90;;;14.50;99.90;;;;;;5072490;28;20210;-71
2022/05/30 03:30:42;;;;;;;1.92;1.23;;;14.50;99.90;;;;;;5072209;28;20267;-71
2022/05/30 03:33:10;;;;;;;2.17;1.17;;;14.20;99.90;;;;;;5072460;28;20248;-70
2022/05/30 03:35:38;;;;;;;3.67;1.63;;;14.10;99.90;;;;;;5071750;28;20256;-69
2022/05/30 03:38:06;;;;;;;1.98;1.17;;;14.10;99.90;;;;;;5071962;28;20206;-70
2022/05/30 03:40:36;;;;;;;2.53;0.90;;;14.00;99.90;;;;;;5071268;28;20213;-70
2022/05/30 03:43:07;;;;;;;1.25;0.95;;;14.10;99.90;;;;;;5072405;28;20233;-69
2022/05/30 03:45:34;;;;;;;2.08;1.45;;;14.30;99.90;;;;;;5071493;28;20233;-69
2022/05/30 03:48:01;;;;;;;5.43;1.20;;;14.30;99.90;;;;;;5072100;28;20210;-70
2022/05/30 03:50:28;;;;;;;1.08;0.93;;;14.20;99.90;;;;;;5071699;28;20252;-69
2022/05/30 03:52:55;;;;;;;2.15;0.70;;;14.30;99.90;;;;;;5071731;28;20206;-69
2022/05/30 03:55:23;;;;;;;2.78;1.40;;;14.40;99.90;;;;;;5071987;28;20206;-69
2022/05/30 03:57:52;;;;;;;3.80;1.50;;;14.30;99.90;;;;;;5071211;28;20275;-69
2022/05/30 04:00:22;;;;;;;1.55;1.35;;;14.20;99.90;;;;;;5071844;28;20487;-69
2022/05/30 04:02:49;;;;;;;5.05;1.85;;;14.20;99.90;;;;;;5071106;28;20214;-70
2022/05/30 04:05:17;;;;;;;1.45;1.25;;;14.20;99.90;;;;;;5071387;28;20229;-71
2022/05/30 04:07:44;;;;;;;3.03;1.30;;;14.20;99.90;;;;;;5070822;28;20203;-70
2022/05/30 04:10:11;;;;;;;3.83;2.00;;;14.10;99.90;;;;;;5071726;28;20256;-70
2022/05/30 04:12:39;;;;;;;2.80;1.23;;;14.10;99.90;;;;;;5071051;28;20206;-70
2022/05/30 04:15:09;;;;;;;3.03;1.42;;;14.10;99.90;;;;;;5071268;28;20586;-70
2022/05/30 04:17:38;;;;;;;3.17;1.40;;;14.10;99.90;;;;;;5070923;28;20206;-70
2022/05/30 04:20:06;;;;;;;4.72;1.88;;;14.10;99.90;;;;;;5070684;28;20222;-70
2022/05/30 04:22:33;;;;;;;3.92;1.65;;;14.20;99.90;;;;;;5071198;28;20199;-70
2022/05/30 04:25:00;;;;;;;3.40;1.67;;;14.00;99.90;;;;;;5071242;28;20225;-70
2022/05/30 04:27:27;;;;;;;1.58;1.48;;;14.00;99.90;;;;;;5071366;28;20621;-70
2022/05/30 04:29:54;;;;;;;2.55;1.35;;;14.10;99.90;;;;;;5071338;28;20263;-70
2022/05/30 04:32:22;;;;;;;1.60;1.33;;;13.90;99.90;;;;;;5071039;28;20210;-70
2022/05/30 04:34:51;;;;;;;2.85;1.33;;;13.90;99.90;;;;;;5070457;28;20214;-69
2022/05/30 04:37:18;;;;;;;2.22;1.30;;;14.00;99.90;;;;;;5070692;28;20252;-70
2022/05/30 04:39:45;;;;;;;3.67;1.95;;;14.00;99.90;;;;;;5070774;28;20206;-70
2022/05/30 04:42:12;;;;;;;1.92;1.80;;;14.10;99.90;;;;;;5070705;28;20623;-70
2022/05/30 04:44:39;;;;;;;4.70;1.95;;;14.10;99.90;;;;;;5070486;28;20230;-70
2022/05/30 04:47:07;;;;;;;3.08;1.77;;;14.00;99.90;;;;;;5070560;28;20207;-70
2022/05/30 04:49:34;;;;;;;2.45;1.05;;;14.00;99.90;;;;;;5070213;28;20206;-69
2022/05/30 04:52:02;;;;;;;1.50;1.20;;;13.90;99.90;;;;;;5070427;28;20362;-71
2022/05/30 04:54:29;;;;;;;3.72;1.10;;;14.00;99.90;;;;;;5070420;28;20639;-70
2022/05/30 04:56:56;;;;;;;5.28;1.63;;;14.00;99.90;;;;;;5070952;28;20739;-72
2022/05/30 04:59:23;;;;;;;3.47;1.80;;;14.10;99.90;;;;;;5056646;28;20727;-71
2022/05/30 05:01:50;;;;;;;2.03;1.50;;;14.00;99.90;;;;;;5064607;28;20453;-71
2022/05/30 05:04:17;;;;;;;2.03;1.15;;;14.10;99.90;;;;;;5070278;28;20210;-70
2022/05/30 05:06:44;;;;;;;1.35;1.02;;;14.20;99.90;;;;;;5065957;28;20207;-68
2022/05/30 05:09:31;;;;;;;1.33;0.88;;;14.30;99.90;;;;;;5055353;28;20666;-72
2022/05/30 05:11:58;;;;;;;2.20;1.42;;;14.40;99.90;;;;;;5056631;28;20208;-68
2022/05/30 05:14:25;;;;;;;3.70;1.63;;;14.40;99.90;;;;;;5067118;28;20339;-69
2022/05/30 05:16:52;;;;;;;2.20;0.90;;;14.40;99.90;;;;;;5065591;28;20261;-68
2022/05/30 05:19:19;;;;;;;6.05;1.23;;;14.50;99.90;;;;;;5050614;28;20581;-76
2022/05/30 05:21:46;;;;;;;2.08;1.63;;;14.50;99.90;;;;;;5049749;28;20631;-68
2022/05/30 05:24:15;;;;;;;1.08;0.95;;;14.60;99.90;;;;;;5055974;28;20212;-69
2022/05/30 05:26:48;;;;;;;1.83;0.90;;;14.60;99.90;;;;;;5067947;28;20213;-68
2022/05/30 05:29:16;;;;;;;5.90;1.70;;;14.60;99.90;;;;;;5067282;28;20615;-68
2022/05/30 05:31:44;;;;;;;2.80;1.20;;;14.60;99.90;;;;;;5067278;28;20261;-67
2022/05/30 05:34:13;;;;;;;2.83;0.98;;;14.50;99.90;;;;;;5068434;28;20267;-81
2022/05/30 05:36:44;;;;;;;1.58;0.95;;;14.60;99.90;;;;;;5056444;28;20211;-81
2022/05/30 05:39:12;;;;;;;3.55;1.65;;;14.60;99.90;;;;;;5050122;28;20221;-68
2022/05/30 05:41:41;;;;;;;3.28;1.50;;;14.70;99.90;;;;;;5049818;28;20199;-67
2022/05/30 05:44:10;;;;;;;5.68;1.40;;;14.70;99.90;;;;;;5050181;28;20252;-67
2022/05/30 05:46:37;;;;;;;2.70;1.13;;;14.80;99.90;;;;;;5049544;28;20234;-68
2022/05/30 05:49:06;;;;;;;4.03;1.73;;;14.70;99.90;;;;;;5049968;28;20264;-68
2022/05/30 05:51:33;;;;;;;2.80;1.30;;;14.70;99.90;;;;;;5051747;28;20199;-77
2022/05/30 05:54:00;;;;;;;4.38;2.40;;;14.80;99.90;;;;;;5054559;28;20280;-79
2022/05/30 05:56:29;;;;;;;1.90;1.30;;;14.80;99.90;;;;;;5068184;28;20206;-78
2022/05/30 05:58:57;;;;;;;5.32;1.85;;;14.90;99.90;;;;;;5068643;28;20213;-69
2022/05/30 06:01:27;;;;;;;6.07;2.42;;;15.10;99.90;;;;;;5069451;28;20210;-75
2022/05/30 06:03:55;;;;;;;5.93;1.90;;;15.20;99.90;;;;;;5069297;28;20260;-78
2022/05/30 06:06:22;;;;;;;4.93;1.92;;;15.30;99.90;;;;;;5068583;28;20226;-68
2022/05/30 06:08:50;;;;;;;2.22;1.40;;;15.40;99.90;;;;;;5069143;28;20206;-77
2022/05/30 06:11:19;;;;;;;2.30;1.35;;;15.30;99.90;;;;;;5069736;28;20764;-68
2022/05/30 06:13:47;;;;;;;2.60;1.05;;;15.30;99.90;;;;;;5068973;28;20206;-68
2022/05/30 06:16:17;;;;;;;2.97;1.30;;;15.30;99.90;;;;;;5071473;28;20258;-69
2022/05/30 06:18:45;;;;;;;2.63;1.55;;;15.50;99.90;;;;;;5059203;28;20677;-68
2022/05/30 06:21:12;;;;;;;3.88;1.10;;;15.60;99.90;;;;;;5058824;28;20272;-68
2022/05/30 06:23:39;;;;;;;14.15;2.33;;;15.70;99.90;;;;;;5058260;28;20289;-68
2022/05/30 06:26:08;;;;;;;1.42;1.27;;;15.80;99.90;;;;;;5065253;28;20234;-67
2022/05/30 06:28:36;;;;;;;1.90;1.10;;;16.00;99.90;;;;;;5061209;28;20206;-70
2022/05/30 06:31:08;;;;;;;1.75;0.85;;;16.00;99.90;;;;;;5064576;28;20211;-67
2022/05/30 06:33:35;;;;;;;4.05;1.48;;;16.00;99.90;;;;;;5061583;28;20205;-67
2022/05/30 06:36:05;;;;;;;1.85;1.70;;;16.20;99.90;;;;;;5060657;28;20937;-67
2022/05/30 06:38:32;;;;;;;1.35;1.10;;;16.50;99.90;;;;;;5065563;28;20198;-67
2022/05/30 06:41:10;;;;;;;1.67;1.17;;;16.50;99.90;;;;;;5061281;28;20207;-67
2022/05/30 06:43:36;;;;;;;3.53;1.38;;;16.50;99.90;;;;;;5058203;28;20696;-67
2022/05/30 06:46:03;;;;;;;4.18;0.85;;;16.50;99.90;;;;;;5052699;28;20231;-67
2022/05/30 06:48:31;;;;;;;5.25;1.45;;;16.60;99.90;;;;;;5053236;28;20264;-67
2022/05/30 06:50:58;;;;;;;1.88;0.95;;;16.70;99.90;;;;;;5053339;28;20249;-67
2022/05/30 06:53:26;;;;;;;2.88;1.05;;;16.80;99.90;;;;;;5053294;28;20203;-67
2022/05/30 06:55:53;;;;;;;1.55;1.08;;;17.00;99.90;;;;;;5052803;28;20199;-67
2022/05/30 06:58:21;;;;;;;5.90;1.70;;;17.20;99.90;;;;;;5052682;28;20203;-71
2022/05/30 07:00:48;;;;;;;4.25;1.10;;;17.20;99.90;;;;;;5052246;28;20214;-67
2022/05/30 07:03:17;;;;;;;2.15;1.00;;;17.30;99.90;;;;;;5052834;28;20211;-67
2022/05/30 07:05:46;;;;;;;3.00;1.58;;;17.50;99.90;;;;;;5052277;28;20230;-70
2022/05/30 07:08:13;;;;;;;2.90;1.08;;;17.50;99.90;;;;;;5052719;28;20203;-67
2022/05/30 07:10:42;;;;;;;1.83;1.35;;;17.50;99.90;;;;;;5052300;28;20207;-67
2022/05/30 07:13:10;;;;;;;2.65;1.30;;;17.80;99.90;;;;;;5053714;28;20202;-67
2022/05/30 07:15:38;;;;;;;3.85;0.95;;;17.90;99.90;;;;;;5072097;28;20202;-67
2022/05/30 07:18:10;;;;;;;2.85;1.00;;;17.90;99.90;;;;;;5072701;28;20210;-68
2022/05/30 07:20:37;;;;;;;6.90;1.48;;;17.60;99.90;;;;;;5071366;28;20210;-67
2022/05/30 07:23:04;;;;;;;2.58;1.27;;;17.50;99.90;;;;;;5070655;28;20206;-67
2022/05/30 07:25:34;;;;;;;1.80;1.40;;;17.60;99.90;;;;;;5071786;28;20226;-67
2022/05/30 07:28:03;;;;;;;1.48;1.33;;;17.70;99.90;;;;;;5072116;28;20560;-67
2022/05/30 07:30:30;;;;;;;4.57;1.63;;;17.80;99.90;;;;;;5072074;28;20658;-67
2022/05/30 07:32:58;;;;;;;3.60;1.73;;;18.00;99.90;;;;;;5072703;28;20202;-66
2022/05/30 07:35:25;;;;;;;3.13;1.00;;;18.10;99.90;;;;;;5072467;28;20210;-66
2022/05/30 07:37:52;;;;;;;5.35;1.42;;;18.30;99.90;;;;;;5071708;28;20674;-67
2022/05/30 07:40:19;;;;;;;4.88;1.13;;;18.40;99.90;;;;;;5071908;28;20268;-66
2022/05/30 07:42:47;;;;;;;2.70;2.08;;;18.50;99.90;;;;;;5071790;28;20262;-67
2022/05/30 07:45:16;;;;;;;2.35;2.17;;;18.60;99.90;;;;;;5072090;28;20213;-67
2022/05/30 07:47:43;;;;;;;2.05;1.60;;;18.40;99.90;;;;;;5071619;28;20202;-67
2022/05/30 07:50:11;;;;;;;2.25;1.15;;;18.40;99.90;;;;;;5071911;28;20617;-67
2022/05/30 07:52:38;;;;;;;2.53;1.25;;;18.50;99.90;;;;;;5071362;28;20198;-67
2022/05/30 07:55:06;;;;;;;1.90;1.33;;;18.70;99.90;;;;;;5071884;28;20666;-67
2022/05/30 08:00:20;;;;;;;1.20;0.88;;;18.80;99.90;;;;;;5071816;28;20213;-67
2022/05/30 08:02:47;;;;;;;1.98;0.80;;;18.90;99.90;;;;;;5071285;28;20210;-67
2022/05/30 08:05:15;;;;;;;2.92;1.25;;;18.80;99.90;;;;;;5071646;28;20202;-67
2022/05/30 08:07:44;;;;;;;3.90;1.88;;;18.90;99.90;;;;;;5070979;28;20669;-67
2022/05/30 08:10:13;;;;;;;5.45;1.10;;;19.00;99.90;;;;;;5071942;28;20245;-66
2022/05/30 08:12:39;;;;;;;2.58;1.23;;;19.00;99.90;;;;;;5070822;28;20210;-66
2022/05/30 08:15:09;;;;;;;2.72;1.00;;;18.60;99.90;;;;;;5071441;28;20248;-66
2022/05/30 08:17:37;;;;;;;3.42;1.25;;;18.50;99.90;;;;;;5070926;28;20237;-71
2022/05/30 08:20:06;;;;;;;3.60;2.10;;;18.30;99.90;;;;;;5071298;28;20218;-67
2022/05/30 08:22:34;;;;;;;2.72;1.83;;;18.40;99.90;;;;;;5071247;28;20202;-67
2022/05/30 08:25:04;;;;;;;6.85;2.03;;;18.60;99.90;;;;;;5070983;28;20222;-71
2022/05/30 08:27:32;;;;;;;2.40;1.33;;;18.90;99.90;;;;;;5070473;28;20325;-67
2022/05/30 08:29:59;;;;;;;2.03;1.30;;;19.00;99.90;;;;;;5070907;28;20592;-67
2022/05/30 08:32:33;;;;;;;2.67;1.00;;;19.00;99.90;;;;;;5071494;28;20601;-67
2022/05/30 08:35:03;;;;;;;5.03;1.00;;;19.00;99.90;;;;;;5071286;28;20263;-67
2022/05/30 08:37:31;;;;;;;2.08;1.42;;;19.10;99.90;;;;;;5071300;28;20210;-67
2022/05/30 08:42:43;;;;;;;1.30;1.00;;;19.60;99.90;;;;;;5070486;28;20209;-71
2022/05/30 08:45:14;;;;;;;3.53;1.00;;;19.50;99.90;;;;;;5071202;28;20210;-67
2022/05/30 08:47:49;;;;;;;1.65;1.17;;;19.40;99.90;;;;;;5070234;28;20603;-67
2022/05/30 08:50:26;;;;;;;4.90;1.27;;;19.30;99.90;;;;;;5071120;28;20259;-67
2022/05/30 08:53:36;;;;;;;3.78;1.52;;;19.20;99.90;;;;;;5057475;28;20213;-67
2022/05/30 08:56:13;;;;;;;1.40;0.98;;;19.10;99.90;;;;;;5070414;28;20743;-67
2022/05/30 08:58:48;;;;;;;5.70;1.77;;;19.30;99.90;;;;;;5070195;28;20673;-67
2022/05/30 09:01:21;;;;;;;3.45;1.85;;;19.70;99.90;;;;;;5070576;28;20241;-67
2022/05/30 09:06:39;;;;;;;1.55;1.20;;;20.40;99.90;;;;;;5070131;28;20642;-70
2022/05/30 09:09:13;;;;;;;3.33;1.63;;;20.50;99.90;;;;;;5070617;28;20647;-66
2022/05/30 09:11:44;;;;;;;2.60;1.52;;;21.00;99.90;;;;;;5069961;28;20228;-67
2022/05/30 09:14:15;;;;;;;1.08;0.88;;;20.80;99.90;;;;;;5070678;28;20267;-70
2022/05/30 09:16:47;;;;;;;2.97;1.70;;;20.90;99.90;;;;;;5070151;28;20210;-67
2022/05/30 09:19:16;;;;;;;6.03;1.75;;;21.30;99.90;;;;;;5070410;28;20206;-67
2022/05/30 09:21:45;;;;;;;2.03;1.58;;;21.70;99.90;;;;;;5067267;28;20214;-67
2022/05/30 09:24:16;;;;;;;3.50;1.40;;;21.40;99.90;;;;;;5069875;28;20209;-67
2022/05/30 09:26:43;;;;;;;2.42;0.85;;;21.20;99.90;;;;;;5069784;28;20230;-67
2022/05/30 09:29:17;;;;;;;4.25;1.65;;;21.30;99.90;;;;;;5070551;28;20210;-67
2022/05/30 09:31:55;;;;;;;3.03;1.55;;;21.80;99.90;;;;;;5069831;28;20206;-67
2022/05/30 09:34:33;;;;;;;2.85;0.95;;;22.70;99.90;;;;;;5070284;28;20628;-68
2022/05/30 09:37:01;;;;;;;1.70;1.23;;;24.30;99.90;;;;;;5071330;28;20210;-68
2022/05/30 09:39:28;;;;;;;2.38;1.88;;;23.10;99.90;;;;;;5074533;28;20210;-67
2022/05/30 09:41:57;;;;;;;2.25;1.08;;;22.20;99.90;;;;;;5074261;28;20686;-68
2022/05/30 09:44:27;;;;;;;2.15;1.13;;;21.80;99.90;;;;;;5074622;28;20205;-67
2022/05/30 09:46:56;;;;;;;1.48;1.08;;;21.50;99.90;;;;;;5074096;28;20685;-66
2022/05/30 09:49:25;;;;;;;1.25;1.15;;;21.60;99.90;;;;;;5074270;28;20284;-68
2022/05/30 09:51:55;;;;;;;5.03;1.05;;;21.70;99.90;;;;;;5073871;28;20206;-67
2022/05/30 09:54:35;;;;;;;4.15;1.02;;;22.10;99.90;;;;;;5073970;28;20198;-67
2022/05/30 09:57:07;;;;;;;2.22;1.20;;;21.60;99.90;;;;;;5074186;28;20594;-67
2022/05/30 09:59:38;;;;;;;2.55;1.80;;;21.70;99.90;;;;;;5073537;28;20233;-67
2022/05/30 10:02:21;;;;;;;3.90;1.40;;;22.60;99.90;;;;;;5074280;28;20573;-71
2022/05/30 10:04:54;;;;;;;3.47;1.60;;;27.00;99.90;;;;;;5072393;28;20726;-67
2022/05/30 10:07:22;;;;;;;3.92;1.45;;;29.10;99.90;;;;;;5074009;28;20307;-67
2022/05/30 10:09:57;;;;;;;3.90;1.63;;;31.30;99.90;;;;;;5059451;28;20210;-68
2022/05/30 10:12:33;;;;;;;2.42;1.25;;;31.90;99.90;;;;;;5074138;28;20635;-67
2022/05/30 10:15:00;;;;;;;4.85;1.45;;;32.40;99.90;;;;;;5073774;28;20214;-68
2022/05/30 10:17:32;;;;;;;1.88;1.30;;;33.50;99.90;;;;;;5074020;28;20210;-67
2022/05/30 10:20:01;;;;;;;5.03;1.63;;;33.20;99.90;;;;;;5073585;28;20218;-68
2022/05/30 10:28:44;;;;;;;1.38;1.27;;;33.70;99.90;;;;;;5073552;28;20596;-67
2022/05/30 10:31:25;;;;;;;12.05;1.85;;;32.20;99.90;;;;;;5073590;28;20284;-67
2022/05/30 10:34:09;;;;;;;2.70;1.52;;;30.80;99.90;;;;;;5073106;28;20210;-67
2022/05/30 10:36:50;;;;;;;3.95;1.40;;;27.10;99.90;;;;;;5072753;28;20214;-67
2022/05/30 10:39:28;;;;;;;3.15;0.95;;;24.60;99.90;;;;;;5060089;28;20206;-67
2022/05/30 10:42:03;;;;;;;2.60;1.30;;;24.10;99.90;;;;;;5073260;28;20264;-67
2022/05/30 10:44:35;;;;;;;3.17;1.42;;;24.00;99.90;;;;;;5073115;28;20255;-66
2022/05/30 10:47:07;;;;;;;3.78;2.00;;;23.70;99.90;;;;;;5073063;28;20226;-67
2022/05/30 10:49:37;;;;;;;1.55;1.20;;;23.50;99.90;;;;;;5072013;28;20248;-67
2022/05/30 10:52:07;;;;;;;1.20;0.85;;;23.60;99.90;;;;;;5072928;28;20210;-67
2022/05/30 10:54:39;;;;;;;3.08;1.00;;;23.10;99.90;;;;;;5059484;28;20795;-67
2022/05/30 10:57:16;;;;;;;2.22;1.63;;;23.10;99.90;;;;;;5073215;28;20206;-67
2022/05/30 10:59:48;;;;;;;1.63;1.52;;;22.60;99.90;;;;;;5072640;28;20263;-71
2022/05/30 11:02:23;;;;;;;1.45;1.33;;;22.90;99.90;;;;;;5072834;28;20203;-67
2022/05/30 11:04:55;;;;;;;1.75;1.35;;;23.30;99.90;;;;;;5072677;28;20294;-70
2022/05/30 11:07:36;;;;;;;1.67;1.10;;;23.70;99.90;;;;;;5072578;28;20283;-67
2022/05/30 11:10:11;;;;;;;4.45;1.23;;;23.80;99.90;;;;;;5060905;28;20569;-67
2022/05/30 11:12:42;;;;;;;1.38;1.27;;;23.50;99.90;;;;;;5072085;28;20209;-67
2022/05/30 11:15:16;;;;;;;1.98;1.40;;;23.30;99.90;;;;;;5072725;28;20198;-71
2022/05/30 11:17:48;;;;;;;2.97;1.40;;;23.50;99.90;;;;;;5072465;28;20201;-71
2022/05/30 11:20:21;;;;;;;4.88;0.98;;;23.90;99.90;;;;;;5072191;28;20214;-67
2022/05/30 11:22:50;;;;;;;2.22;1.10;;;24.10;99.90;;;;;;5072070;28;20556;-68
2022/05/30 11:25:23;;;;;;;1.15;1.00;;;24.40;99.90;;;;;;5072197;28;20206;-67
2022/05/30 11:28:02;;;;;;;1.58;0.95;;;24.50;99.90;;;;;;5072203;28;20280;-67
2022/05/30 11:30:39;;;;;;;1.85;1.33;;;24.70;99.90;;;;;;5072374;28;20206;-67
2022/05/30 11:33:44;;;;;;;2.47;1.10;;;24.60;99.90;;;;;;5072273;28;20209;-67
2022/05/30 11:36:35;;;;;;;2.75;1.20;;;24.70;99.90;;;;;;5071961;28;20245;-67
2022/05/30 11:39:09;;;;;;;2.22;1.42;;;24.90;99.90;;;;;;5072027;28;20206;-67
2022/05/30 11:41:57;;;;;;;2.55;1.17;;;24.60;99.90;;;;;;5071627;28;20282;-67
2022/05/30 11:44:46;;;;;;;1.23;1.08;;;24.90;99.90;;;;;;5072572;28;20263;-67
2022/05/30 11:47:32;;;;;;;2.45;0.90;;;24.90;99.90;;;;;;5071935;28;20317;-67
2022/05/30 11:50:20;;;;;;;2.85;1.27;;;25.10;99.90;;;;;;5071712;28;20298;-67
2022/05/30 11:53:06;;;;;;;1.75;1.60;;;24.90;99.90;;;;;;5071665;28;20272;-67
2022/05/30 11:55:41;;;;;;;3.63;1.83;;;24.90;99.90;;;;;;5071558;28;20617;-67
2022/05/30 11:58:12;;;;;;;2.33;1.40;;;24.70;99.90;;;;;;5071856;28;20217;-70
2022/05/30 12:00:45;;;;;;;3.67;1.42;;;24.50;99.90;;;;;;5070205;28;20293;-67
2022/05/30 12:03:32;;;;;;;2.15;1.30;;;24.60;99.90;;;;;;5070441;28;20669;-67
2022/05/30 12:06:13;;;;;;;2.10;1.20;;;24.80;99.90;;;;;;5071555;28;20202;-67
2022/05/30 12:09:07;;;;;;;1.50;1.15;;;25.00;99.90;;;;;;5071058;28;20646;-67
2022/05/30 12:11:57;;;;;;;3.25;2.00;;;24.80;99.90;;;;;;5071385;28;20252;-67
2022/05/30 12:14:49;;;;;;;1.67;1.33;;;24.60;99.90;;;;;;5071690;28;20206;-67
2022/05/30 12:17:31;;;;;;;1.90;1.35;;;24.80;99.90;;;;;;5058887;28;20650;-66
2022/05/30 12:25:50;;;;;;;1.52;1.38;;;24.60;99.90;;;;;;5071194;28;20692;-67
2022/05/30 12:28:55;;;;;;;4.38;1.45;;;24.90;99.90;;;;;;5071053;28;20229;-67
2022/05/30 12:31:39;;;;;;;3.47;1.23;;;25.10;99.90;;;;;;5071083;28;20202;-67
2022/05/30 12:34:07;;;;;;;1.83;1.10;;;25.00;99.90;;;;;;5070531;28;20206;-67
2022/05/30 12:36:44;;;;;;;3.38;1.73;;;24.90;99.90;;;;;;5070720;28;20733;-67
2022/05/30 12:39:34;;;;;;;1.30;1.17;;;25.20;99.90;;;;;;5070939;28;20553;-69
2022/05/30 12:42:08;;;;;;;4.47;1.20;;;25.20;99.90;;;;;;5070806;28;20626;-71
2022/05/30 12:44:57;;;;;;;4.95;1.50;;;24.90;99.90;;;;;;5070519;28;20681;-67
2022/05/30 12:47:30;;;;;;;2.80;1.52;;;24.80;99.90;;;;;;5070733;28;20279;-67
2022/05/30 12:50:43;;;;;;;4.35;1.38;;;25.00;99.90;;;;;;5071167;28;20267;-67
2022/05/30 12:53:12;;;;;;;1.92;1.00;;;25.30;99.90;;;;;;5070827;28;20213;-67
2022/05/30 12:55:40;;;;;;;2.28;0.90;;;25.40;99.90;;;;;;5070626;28;20293;-67
2022/05/30 12:58:09;;;;;;;1.00;0.80;;;25.30;99.90;;;;;;5070836;28;20214;-67
2022/05/30 13:00:53;;;;;;;5.10;1.25;;;25.50;99.90;;;;;;5070125;28;20214;-66
2022/05/30 13:03:33;;;;;;;5.47;1.65;;;25.60;99.90;;;;;;5070588;28;20264;-67
2022/05/30 13:06:10;;;;;;;3.67;1.23;;;25.60;99.90;;;;;;5070646;28;20625;-67
2022/05/30 13:09:14;;;;;;;2.03;1.23;;;25.80;99.90;;;;;;5070195;28;20320;-67
2022/05/30 13:11:59;;;;;;;4.53;1.63;;;26.00;99.90;;;;;;5066280;28;20210;-67
2022/05/30 13:14:49;;;;;;;1.30;1.10;;;26.10;99.90;;;;;;5070826;28;20279;-67
2022/05/30 13:17:30;;;;;;;6.50;1.10;;;26.00;99.90;;;;;;5057833;28;20221;-67
2022/05/30 13:20:03;;;;;;;1.60;0.85;;;26.30;99.90;;;;;;5070663;28;20309;-66
2022/05/30 13:22:36;;;;;;;2.13;0.77;;;26.00;99.90;;;;;;5070333;28;20212;-67
2022/05/30 13:25:06;;;;;;;2.30;0.80;;;25.60;99.90;;;;;;5070328;28;20205;-66
2022/05/30 13:27:33;;;;;;;2.42;1.00;;;25.80;99.90;;;;;;5069779;28;20359;-67
2022/05/30 13:30:04;;;;;;;3.28;1.00;;;25.80;99.90;;;;;;5069037;28;20669;-66
2022/05/30 13:32:32;;;;;;;3.78;0.90;;;25.80;99.90;;;;;;5069721;28;20616;-68
2022/05/30 13:35:04;;;;;;;3.28;0.93;;;25.80;99.90;;;;;;5070359;28;20206;-67
2022/05/30 13:37:36;;;;;;;0.93;0.80;;;26.20;99.90;;;;;;5070119;28;20677;-67
2022/05/30 13:40:08;;;;;;;1.00;0.98;;;26.20;99.90;;;;;;5070354;28;20210;-71